Acomita, New Mexico
Current Conditions -  °F | °C
As of 9:37 AM on Saturday 22 Nov 2014 (Local Time) from KGNT Reporting Station
Clear Clear  
Wind Chill: 29°   Ceiling: Unl
Heat Index: 34°   Visibility: 10mi
Dew Point: 16°   Wind: 6mph
Humidity: 48%   Direction: 310°NW
Pressure: 30.16"   Gusts: NA
Location:  35.0806°N, 107.597°W
Report Text: KGNT 221637Z AUTO 31005KT 10SM CLR 01/M09 A3016 RMK AO2 LTG DSNT E
Loading
Personal Weather Stations






























Interactive Weather Map New forecast layout! Learn more

10-Day Weather Forecast

Advertisements
Track Severe Weather on mobile